sensor_id;sensor_type;location;lat;lon;timestamp;pressure;altitude;pressure_sealevel;temperature
64904;BMP280;51401;48.882;12.598;2023-01-09T00:00:22;105569.88;;;4.29
64904;BMP280;51401;48.882;12.598;2023-01-09T00:02:47;105519.41;;;4.28
64904;BMP280;51401;48.882;12.598;2023-01-09T00:05:14;105479.84;;;4.29
64904;BMP280;51401;48.882;12.598;2023-01-09T00:07:40;105465.50;;;4.36
64904;BMP280;51401;48.882;12.598;2023-01-09T00:10:06;105398.47;;;4.38
64904;BMP280;51401;48.882;12.598;2023-01-09T00:12:33;105372.03;;;4.45
64904;BMP280;51401;48.882;12.598;2023-01-09T00:14:58;105278.59;;;4.45
64904;BMP280;51401;48.882;12.598;2023-01-09T00:17:23;105165.41;;;4.45
64904;BMP280;51401;48.882;12.598;2023-01-09T00:19:49;105097.94;;;4.51
64904;BMP280;51401;48.882;12.598;2023-01-09T00:22:14;104953.97;;;4.41
64904;BMP280;51401;48.882;12.598;2023-01-09T00:24:39;104912.19;;;4.47
64904;BMP280;51401;48.882;12.598;2023-01-09T00:27:04;104838.22;;;4.49
64904;BMP280;51401;48.882;12.598;2023-01-09T00:29:30;104687.56;;;4.39
64904;BMP280;51401;48.882;12.598;2023-01-09T00:31:55;104621.19;;;4.42
64904;BMP280;51401;48.882;12.598;2023-01-09T00:34:21;104552.69;;;4.41
64904;BMP280;51401;48.882;12.598;2023-01-09T00:36:47;104468.31;;;4.37
64904;BMP280;51401;48.882;12.598;2023-01-09T00:39:12;104445.66;;;4.40
64904;BMP280;51401;48.882;12.598;2023-01-09T00:41:42;104348.72;;;4.33
64904;BMP280;51401;48.882;12.598;2023-01-09T00:44:12;104328.94;;;4.41
64904;BMP280;51401;48.882;12.598;2023-01-09T00:46:43;104281.69;;;4.42
64904;BMP280;51401;48.882;12.598;2023-01-09T00:49:09;104217.72;;;4.39
64904;BMP280;51401;48.882;12.598;2023-01-09T00:51:36;104188.88;;;4.44
64904;BMP280;51401;48.882;12.598;2023-01-09T00:54:02;104086.09;;;4.36
64904;BMP280;51401;48.882;12.598;2023-01-09T00:56:28;104022.78;;;4.35
64904;BMP280;51401;48.882;12.598;2023-01-09T00:58:53;103981.66;;;4.35
64904;BMP280;51401;48.882;12.598;2023-01-09T01:01:19;103934.91;;;4.31
64904;BMP280;51401;48.882;12.598;2023-01-09T01:03:44;103932.78;;;4.35
64904;BMP280;51401;48.882;12.598;2023-01-09T01:06:09;103874.69;;;4.26
64904;BMP280;51401;48.882;12.598;2023-01-09T01:08:53;103846.63;;;4.24
64904;BMP280;51401;48.882;12.598;2023-01-09T01:11:20;103890.50;;;4.23
64904;BMP280;51401;48.882;12.598;2023-01-09T01:13:45;103920.88;;;4.19
64904;BMP280;51401;48.882;12.598;2023-01-09T01:16:12;103975.84;;;4.18
64904;BMP280;51401;48.882;12.598;2023-01-09T01:18:37;104062.09;;;4.21
64904;BMP280;51401;48.882;12.598;2023-01-09T01:21:07;104137.13;;;4.24
64904;BMP280;51401;48.882;12.598;2023-01-09T01:23:33;104203.16;;;4.24
64904;BMP280;51401;48.882;12.598;2023-01-09T01:26:09;104290.56;;;4.24
64904;BMP280;51401;48.882;12.598;2023-01-09T01:28:35;104362.75;;;4.22
64904;BMP280;51401;48.882;12.598;2023-01-09T01:31:01;104478.59;;;4.21
64904;BMP280;51401;48.882;12.598;2023-01-09T01:33:26;104548.16;;;4.19
64904;BMP280;51401;48.882;12.598;2023-01-09T01:36:02;104673.03;;;4.22
64904;BMP280;51401;48.882;12.598;2023-01-09T01:38:28;104752.25;;;4.18
64904;BMP280;51401;48.882;12.598;2023-01-09T01:40:55;104874.56;;;4.21
64904;BMP280;51401;48.882;12.598;2023-01-09T01:43:20;104979.03;;;4.22
64904;BMP280;51401;48.882;12.598;2023-01-09T01:45:45;105106.34;;;4.26
64904;BMP280;51401;48.882;12.598;2023-01-09T01:48:14;105222.63;;;4.29
64904;BMP280;51401;48.882;12.598;2023-01-09T01:53:16;105451.13;;;4.34
64904;BMP280;51401;48.882;12.598;2023-01-09T01:55:49;105540.25;;;4.35
64904;BMP280;51401;48.882;12.598;2023-01-09T01:58:19;105615.66;;;4.35
64904;BMP280;51401;48.882;12.598;2023-01-09T02:00:46;105731.31;;;4.37
64904;BMP280;51401;48.882;12.598;2023-01-09T02:03:14;105804.28;;;4.36
64904;BMP280;51401;48.882;12.598;2023-01-09T02:05:41;105945.03;;;4.45
64904;BMP280;51401;48.882;12.598;2023-01-09T02:08:07;106011.50;;;4.40
64904;BMP280;51401;48.882;12.598;2023-01-09T02:10:33;106104.16;;;4.40
64904;BMP280;51401;48.882;12.598;2023-01-09T02:12:59;106176.09;;;4.41
64904;BMP280;51401;48.882;12.598;2023-01-09T02:15:26;106292.22;;;4.48
64904;BMP280;51401;48.882;12.598;2023-01-09T02:18:09;106404.81;;;4.56
64904;BMP280;51401;48.882;12.598;2023-01-09T02:21:02;106424.81;;;4.53
64904;BMP280;51401;48.882;12.598;2023-01-09T02:23:52;106527.56;;;4.56
64904;BMP280;51401;48.882;12.598;2023-01-09T02:35:16;106731.19;;;4.41
64904;BMP280;51401;48.882;12.598;2023-01-09T02:40:52;106935.56;;;4.51
64904;BMP280;51401;48.882;12.598;2023-01-09T02:43:20;107047.00;;;4.52
64904;BMP280;51401;48.882;12.598;2023-01-09T02:45:46;107128.59;;;4.52
64904;BMP280;51401;48.882;12.598;2023-01-09T02:48:11;107193.84;;;4.51
64904;BMP280;51401;48.882;12.598;2023-01-09T02:53:50;107354.16;;;4.54
64904;BMP280;51401;48.882;12.598;2023-01-09T02:56:45;107438.94;;;4.57
64904;BMP280;51401;48.882;12.598;2023-01-09T02:59:24;107497.34;;;4.57
64904;BMP280;51401;48.882;12.598;2023-01-09T03:02:10;107627.31;;;4.65
64904;BMP280;51401;48.882;12.598;2023-01-09T03:04:58;107761.03;;;4.70
64904;BMP280;51401;48.882;12.598;2023-01-09T03:07:36;107728.31;;;4.56
64904;BMP280;51401;48.882;12.598;2023-01-09T03:10:19;107775.56;;;4.55
64904;BMP280;51401;48.882;12.598;2023-01-09T03:12:49;107865.81;;;4.54
64904;BMP280;51401;48.882;12.598;2023-01-09T03:15:17;107946.31;;;4.57
64904;BMP280;51401;48.882;12.598;2023-01-09T03:17:46;108107.09;;;4.70
64904;BMP280;51401;48.882;12.598;2023-01-09T03:20:15;108188.06;;;4.65
64904;BMP280;51401;48.882;12.598;2023-01-09T03:22:54;108251.66;;;4.64
64904;BMP280;51401;48.882;12.598;2023-01-09T03:25:20;108298.31;;;4.58
64904;BMP280;51401;48.882;12.598;2023-01-09T03:27:46;108389.03;;;4.65
64904;BMP280;51401;48.882;12.598;2023-01-09T03:30:11;108429.53;;;4.61
64904;BMP280;51401;48.882;12.598;2023-01-09T03:32:37;108449.66;;;4.53
64904;BMP280;51401;48.882;12.598;2023-01-09T03:35:02;108516.50;;;4.56
64904;BMP280;51401;48.882;12.598;2023-01-09T03:37:27;108517.59;;;4.51
64904;BMP280;51401;48.882;12.598;2023-01-09T03:39:53;108609.13;;;4.59
64904;BMP280;51401;48.882;12.598;2023-01-09T03:42:18;108677.03;;;4.58
64904;BMP280;51401;48.882;12.598;2023-01-09T03:44:43;108736.25;;;4.60
64904;BMP280;51401;48.882;12.598;2023-01-09T03:47:08;108839.94;;;4.65
64904;BMP280;51401;48.882;12.598;2023-01-09T03:49:34;108897.44;;;4.65
64904;BMP280;51401;48.882;12.598;2023-01-09T03:51:59;108984.97;;;4.68
64904;BMP280;51401;48.882;12.598;2023-01-09T03:54:24;109029.78;;;4.64
64904;BMP280;51401;48.882;12.598;2023-01-09T03:56:50;109073.66;;;4.61
64904;BMP280;51401;48.882;12.598;2023-01-09T03:59:15;109117.63;;;4.58
64904;BMP280;51401;48.882;12.598;2023-01-09T04:01:40;109171.69;;;4.60
64904;BMP280;51401;48.882;12.598;2023-01-09T04:04:05;109263.47;;;4.64
64904;BMP280;51401;48.882;12.598;2023-01-09T04:06:31;109327.78;;;4.67
64904;BMP280;51401;48.882;12.598;2023-01-09T04:08:56;109380.16;;;4.67
64904;BMP280;51401;48.882;12.598;2023-01-09T04:11:21;109494.22;;;4.75
64904;BMP280;51401;48.882;12.598;2023-01-09T04:13:47;109507.28;;;4.69
64904;BMP280;51401;48.882;12.598;2023-01-09T04:16:12;109538.31;;;4.66
64904;BMP280;51401;48.882;12.598;2023-01-09T04:18:37;109591.53;;;4.67
64904;BMP280;51401;48.882;12.598;2023-01-09T04:21:03;109655.88;;;4.72
64904;BMP280;51401;48.882;12.598;2023-01-09T04:23:28;109782.09;;;4.76
64904;BMP280;51401;48.882;12.598;2023-01-09T04:25:53;109741.94;;;4.65
64904;BMP280;51401;48.882;12.598;2023-01-09T04:28:19;109767.69;;;4.66
64904;BMP280;51401;48.882;12.598;2023-01-09T04:30:44;109828.66;;;4.69
64904;BMP280;51401;48.882;12.598;2023-01-09T04:33:09;109914.44;;;4.75
64904;BMP280;51401;48.882;12.598;2023-01-09T04:35:34;109953.13;;;4.75
64904;BMP280;51401;48.882;12.598;2023-01-09T04:38:00;109993.59;;;4.72
64904;BMP280;51401;48.882;12.598;2023-01-09T04:40:25;110029.72;;;4.70
64904;BMP280;51401;48.882;12.598;2023-01-09T04:42:51;110053.78;;;4.69
64904;BMP280;51401;48.882;12.598;2023-01-09T04:45:16;110167.00;;;4.81
64904;BMP280;51401;48.882;12.598;2023-01-09T04:47:42;110134.56;;;4.70
64904;BMP280;51401;48.882;12.598;2023-01-09T04:50:09;110160.34;;;4.70
64904;BMP280;51401;48.882;12.598;2023-01-09T04:52:34;110196.47;;;4.68
64904;BMP280;51401;48.882;12.598;2023-01-09T04:54:59;110229.09;;;4.69
64904;BMP280;51401;48.882;12.598;2023-01-09T04:57:25;110257.50;;;4.68
64904;BMP280;51401;48.882;12.598;2023-01-09T04:59:50;110299.59;;;4.68
64904;BMP280;51401;48.882;12.598;2023-01-09T05:02:15;110358.00;;;4.69
64904;BMP280;51401;48.882;12.598;2023-01-09T05:04:41;110407.84;;;4.71
64904;BMP280;51401;48.882;12.598;2023-01-09T05:07:06;110427.63;;;4.69
64904;BMP280;51401;48.882;12.598;2023-01-09T05:09:31;110450.81;;;4.69
64904;BMP280;51401;48.882;12.598;2023-01-09T05:11:57;110486.94;;;4.69
64904;BMP280;51401;48.882;12.598;2023-01-09T05:14:22;110530.81;;;4.66
64904;BMP280;51401;48.882;12.598;2023-01-09T05:16:47;110598.66;;;4.71
64904;BMP280;51401;48.882;12.598;2023-01-09T05:19:13;110646.78;;;4.72
64904;BMP280;51401;48.882;12.598;2023-01-09T05:21:38;110676.03;;;4.68
64904;BMP280;51401;48.882;12.598;2023-01-09T05:24:03;110717.31;;;4.68
64904;BMP280;51401;48.882;12.598;2023-01-09T05:26:29;110765.41;;;4.71
64904;BMP280;51401;48.882;12.598;2023-01-09T05:28:55;110822.13;;;4.75
64904;BMP280;51401;48.882;12.598;2023-01-09T05:31:21;110865.13;;;4.76
64904;BMP280;51401;48.882;12.598;2023-01-09T05:33:46;110890.06;;;4.73
64904;BMP280;51401;48.882;12.598;2023-01-09T05:36:12;110927.88;;;4.77
64904;BMP280;51401;48.882;12.598;2023-01-09T05:38:37;110991.50;;;4.78
64904;BMP280;51401;48.882;12.598;2023-01-09T05:41:02;111015.56;;;4.75
64904;BMP280;51401;48.882;12.598;2023-01-09T05:43:28;111062.84;;;4.77
64904;BMP280;51401;48.882;12.598;2023-01-09T05:45:53;111089.50;;;4.78
64904;BMP280;51401;48.882;12.598;2023-01-09T05:48:18;111153.94;;;4.79
64904;BMP280;51401;48.882;12.598;2023-01-09T05:50:44;111245.13;;;4.85
64904;BMP280;51401;48.882;12.598;2023-01-09T05:53:09;111266.59;;;4.83
64904;BMP280;51401;48.882;12.598;2023-01-09T05:55:34;111326.81;;;4.86
64904;BMP280;51401;48.882;12.598;2023-01-09T05:58:00;111381.00;;;4.88
64904;BMP280;51401;48.882;12.598;2023-01-09T06:00:25;111418.84;;;4.87
64904;BMP280;51401;48.882;12.598;2023-01-09T06:02:50;111458.41;;;4.88
64904;BMP280;51401;48.882;12.598;2023-01-09T06:05:16;111489.38;;;4.88
64904;BMP280;51401;48.882;12.598;2023-01-09T06:07:41;111509.13;;;4.89
64904;BMP280;51401;48.882;12.598;2023-01-09T06:10:10;111536.69;;;4.90
64904;BMP280;51401;48.882;12.598;2023-01-09T06:12:35;111600.34;;;4.92
64904;BMP280;51401;48.882;12.598;2023-01-09T06:15:01;111664.84;;;4.95
64904;BMP280;51401;48.882;12.598;2023-01-09T06:17:26;111701.84;;;4.96
64904;BMP280;51401;48.882;12.598;2023-01-09T06:19:51;111806.06;;;5.07
64904;BMP280;51401;48.882;12.598;2023-01-09T06:22:17;111791.31;;;4.95
64904;BMP280;51401;48.882;12.598;2023-01-09T06:24:42;111830.91;;;4.99
64904;BMP280;51401;48.882;12.598;2023-01-09T06:27:07;111922.16;;;5.02
64904;BMP280;51401;48.882;12.598;2023-01-09T06:29:33;111935.88;;;5.00
64904;BMP280;51401;48.882;12.598;2023-01-09T06:31:58;112024.66;;;5.09
64904;BMP280;51401;48.882;12.598;2023-01-09T06:34:23;112040.94;;;5.05
64904;BMP280;51401;48.882;12.598;2023-01-09T06:36:48;112061.56;;;5.04
64904;BMP280;51401;48.882;12.598;2023-01-09T06:39:14;112078.78;;;5.06
64904;BMP280;51401;48.882;12.598;2023-01-09T06:41:39;112155.50;;;5.16
64904;BMP280;51401;48.882;12.598;2023-01-09T06:44:04;112134.78;;;5.12
64904;BMP280;51401;48.882;12.598;2023-01-09T06:46:30;112101.19;;;5.07
64904;BMP280;51401;48.882;12.598;2023-01-09T06:48:55;112092.59;;;5.07
64904;BMP280;51401;48.882;12.598;2023-01-09T06:51:20;112073.66;;;5.08
64904;BMP280;51401;48.882;12.598;2023-01-09T06:53:45;112053.94;;;5.16
64904;BMP280;51401;48.882;12.598;2023-01-09T06:56:11;111976.47;;;5.13
64904;BMP280;51401;48.882;12.598;2023-01-09T06:58:36;111927.44;;;5.11
64904;BMP280;51401;48.882;12.598;2023-01-09T07:01:01;111907.59;;;5.12
64904;BMP280;51401;48.882;12.598;2023-01-09T07:03:27;112009.34;;;5.25
64904;BMP280;51401;48.882;12.598;2023-01-09T07:05:52;111955.03;;;5.19
64904;BMP280;51401;48.882;12.598;2023-01-09T07:08:17;111895.63;;;5.18
64904;BMP280;51401;48.882;12.598;2023-01-09T07:10:43;111838.84;;;5.17
64904;BMP280;51401;48.882;12.598;2023-01-09T07:13:09;111828.50;;;5.17
64904;BMP280;51401;48.882;12.598;2023-01-09T07:15:34;111777.69;;;5.13
64904;BMP280;51401;48.882;12.598;2023-01-09T07:18:00;111761.38;;;5.11
64904;BMP280;51401;48.882;12.598;2023-01-09T07:20:25;111753.59;;;5.09
64904;BMP280;51401;48.882;12.598;2023-01-09T07:22:51;111743.25;;;5.08
64904;BMP280;51401;48.882;12.598;2023-01-09T07:25:16;111726.00;;;5.04
64904;BMP280;51401;48.882;12.598;2023-01-09T07:27:41;111769.09;;;5.11
64904;BMP280;51401;48.882;12.598;2023-01-09T07:30:07;111796.59;;;5.12
64904;BMP280;51401;48.882;12.598;2023-01-09T07:32:33;111823.31;;;5.11
64904;BMP280;51401;48.882;12.598;2023-01-09T07:34:58;111873.22;;;5.13
64904;BMP280;51401;48.882;12.598;2023-01-09T07:37:24;111983.47;;;5.24
64904;BMP280;51401;48.882;12.598;2023-01-09T07:39:49;112034.25;;;5.22
64904;BMP280;51401;48.882;12.598;2023-01-09T07:42:15;112048.84;;;5.18
64904;BMP280;51401;48.882;12.598;2023-01-09T07:44:41;112041.06;;;5.17
64904;BMP280;51401;48.882;12.598;2023-01-09T07:47:06;112116.00;;;5.21
64904;BMP280;51401;48.882;12.598;2023-01-09T07:49:31;112143.56;;;5.24
64904;BMP280;51401;48.882;12.598;2023-01-09T07:51:57;112177.22;;;5.27
64904;BMP280;51401;48.882;12.598;2023-01-09T07:54:22;112172.84;;;5.23
64904;BMP280;51401;48.882;12.598;2023-01-09T07:56:48;112182.31;;;5.24
64904;BMP280;51401;48.882;12.598;2023-01-09T07:59:13;112238.34;;;5.26
64904;BMP280;51401;48.882;12.598;2023-01-09T08:01:39;112261.53;;;5.28
64904;BMP280;51401;48.882;12.598;2023-01-09T08:04:04;112284.78;;;5.28
64904;BMP280;51401;48.882;12.598;2023-01-09T08:06:30;112265.84;;;5.27
64904;BMP280;51401;48.882;12.598;2023-01-09T08:08:55;112281.34;;;5.27
64904;BMP280;51401;48.882;12.598;2023-01-09T08:11:22;112345.19;;;5.34
64904;BMP280;51401;48.882;12.598;2023-01-09T08:13:47;112352.91;;;5.33
64904;BMP280;51401;48.882;12.598;2023-01-09T08:16:12;112452.06;;;5.42
64904;BMP280;51401;48.882;12.598;2023-01-09T08:18:38;112454.56;;;5.36
64904;BMP280;51401;48.882;12.598;2023-01-09T08:21:03;112483.88;;;5.40
64904;BMP280;51401;48.882;12.598;2023-01-09T08:23:28;112575.34;;;5.49
64904;BMP280;51401;48.882;12.598;2023-01-09T08:25:54;112614.09;;;5.49
64904;BMP280;51401;48.882;12.598;2023-01-09T08:28:19;112657.31;;;5.56
64904;BMP280;51401;48.882;12.598;2023-01-09T08:30:45;112758.22;;;5.62
64904;BMP280;51401;48.882;12.598;2023-01-09T08:33:11;112835.03;;;5.69
64904;BMP280;51401;48.882;12.598;2023-01-09T08:35:36;112902.38;;;5.75
64904;BMP280;51401;48.882;12.598;2023-01-09T08:38:02;113036.22;;;5.84
64904;BMP280;51401;48.882;12.598;2023-01-09T08:40:28;113107.81;;;5.88
64904;BMP280;51401;48.882;12.598;2023-01-09T08:42:53;113094.69;;;5.80
64904;BMP280;51401;48.882;12.598;2023-01-09T08:45:36;113262.41;;;5.98
64904;BMP280;51401;48.882;12.598;2023-01-09T08:48:20;113233.72;;;5.89
64904;BMP280;51401;48.882;12.598;2023-01-09T08:50:45;113441.22;;;6.10
64904;BMP280;51401;48.882;12.598;2023-01-09T08:53:11;113431.53;;;6.03
64904;BMP280;51401;48.882;12.598;2023-01-09T08:55:36;113560.41;;;6.16
64904;BMP280;51401;48.882;12.598;2023-01-09T08:58:02;113676.13;;;6.20
64904;BMP280;51401;48.882;12.598;2023-01-09T09:00:27;113954.63;;;6.40
64904;BMP280;51401;48.882;12.598;2023-01-09T09:02:57;114267.06;;;6.61
64904;BMP280;51401;48.882;12.598;2023-01-09T09:05:24;114531.53;;;6.85
64904;BMP280;51401;48.882;12.598;2023-01-09T09:07:51;114657.59;;;7.04
64904;BMP280;51401;48.882;12.598;2023-01-09T09:10:19;114553.47;;;7.13
64904;BMP280;51401;48.882;12.598;2023-01-09T09:12:49;114309.78;;;7.13
64904;BMP280;51401;48.882;12.598;2023-01-09T09:15:15;114052.63;;;7.22
64904;BMP280;51401;48.882;12.598;2023-01-09T09:17:44;113727.81;;;7.26
64904;BMP280;51401;48.882;12.598;2023-01-09T09:20:11;113360.69;;;7.29
64904;BMP280;51401;48.882;12.598;2023-01-09T09:22:36;112916.50;;;7.21
64904;BMP280;51401;48.882;12.598;2023-01-09T09:25:02;112546.00;;;7.27
64904;BMP280;51401;48.882;12.598;2023-01-09T09:27:29;112167.72;;;7.35
64904;BMP280;51401;48.882;12.598;2023-01-09T09:29:55;111665.03;;;7.38
64904;BMP280;51401;48.882;12.598;2023-01-09T09:32:20;111151.19;;;7.40
64904;BMP280;51401;48.882;12.598;2023-01-09T09:34:45;110637.34;;;7.44
64904;BMP280;51401;48.882;12.598;2023-01-09T09:37:10;110103.94;;;7.40
64904;BMP280;51401;48.882;12.598;2023-01-09T09:39:36;109603.34;;;7.39
64904;BMP280;51401;48.882;12.598;2023-01-09T09:42:31;108894.53;;;7.29
64904;BMP280;51401;48.882;12.598;2023-01-09T09:45:53;108369.34;;;7.26
64904;BMP280;51401;48.882;12.598;2023-01-09T09:51:14;107574.25;;;7.25
64904;BMP280;51401;48.882;12.598;2023-01-09T09:53:53;107242.81;;;7.30
64904;BMP280;51401;48.882;12.598;2023-01-09T09:56:22;106971.84;;;7.33
64904;BMP280;51401;48.882;12.598;2023-01-09T09:58:55;106594.44;;;7.21
64904;BMP280;51401;48.882;12.598;2023-01-09T10:01:37;106096.47;;;7.28
64904;BMP280;51401;48.882;12.598;2023-01-09T10:04:08;105602.81;;;7.26
64904;BMP280;51401;48.882;12.598;2023-01-09T10:06:41;105229.00;;;7.33
64904;BMP280;51401;48.882;12.598;2023-01-09T10:14:12;103826.41;;;7.08
64904;BMP280;51401;48.882;12.598;2023-01-09T10:16:46;103514.50;;;7.10
64904;BMP280;51401;48.882;12.598;2023-01-09T10:19:36;103092.22;;;7.08
64904;BMP280;51401;48.882;12.598;2023-01-09T10:25:13;102619.53;;;7.09
64904;BMP280;51401;48.882;12.598;2023-01-09T10:31:09;102213.13;;;7.21
64904;BMP280;51401;48.882;12.598;2023-01-09T10:34:42;101843.47;;;7.29
64904;BMP280;51401;48.882;12.598;2023-01-09T10:37:20;101494.41;;;7.27
64904;BMP280;51401;48.882;12.598;2023-01-09T10:39:48;101230.59;;;7.20
64904;BMP280;51401;48.882;12.598;2023-01-09T10:42:31;100991.09;;;7.22
64904;BMP280;51401;48.882;12.598;2023-01-09T10:47:36;100688.50;;;7.35
64904;BMP280;51401;48.882;12.598;2023-01-09T10:50:16;100682.75;;;7.43
64904;BMP280;51401;48.882;12.598;2023-01-09T10:52:42;100596.56;;;7.39
64904;BMP280;51401;48.882;12.598;2023-01-09T10:55:17;100456.28;;;7.30
64904;BMP280;51401;48.882;12.598;2023-01-09T10:57:46;100449.63;;;7.24
64904;BMP280;51401;48.882;12.598;2023-01-09T11:00:16;100414.22;;;7.30
64904;BMP280;51401;48.882;12.598;2023-01-09T11:02:42;100298.84;;;7.30
64904;BMP280;51401;48.882;12.598;2023-01-09T11:05:12;100098.50;;;7.34
64904;BMP280;51401;48.882;12.598;2023-01-09T11:07:41;99965.22;;;7.30
64904;BMP280;51401;48.882;12.598;2023-01-09T11:10:09;99820.19;;;7.33
64904;BMP280;51401;48.882;12.598;2023-01-09T11:12:36;99777.38;;;7.40
64904;BMP280;51401;48.882;12.598;2023-01-09T11:17:46;99623.44;;;7.36
64904;BMP280;51401;48.882;12.598;2023-01-09T11:20:17;99483.81;;;7.37
64904;BMP280;51401;48.882;12.598;2023-01-09T11:22:53;99373.06;;;7.32
64904;BMP280;51401;48.882;12.598;2023-01-09T11:25:24;99344.06;;;7.35
64904;BMP280;51401;48.882;12.598;2023-01-09T11:28:07;99230.25;;;7.37
64904;BMP280;51401;48.882;12.598;2023-01-09T11:30:37;99189.56;;;7.34
64904;BMP280;51401;48.882;12.598;2023-01-09T11:33:19;99171.94;;;7.36
64904;BMP280;51401;48.882;12.598;2023-01-09T11:38:18;99177.88;;;7.45
64904;BMP280;51401;48.882;12.598;2023-01-09T11:40:49;99107.38;;;7.52
64904;BMP280;51401;48.882;12.598;2023-01-09T11:43:27;99024.81;;;7.52
64904;BMP280;51401;48.882;12.598;2023-01-09T11:45:56;98826.00;;;7.49
64904;BMP280;51401;48.882;12.598;2023-01-09T11:50:58;98620.03;;;7.51
64904;BMP280;51401;48.882;12.598;2023-01-09T11:53:24;98570.34;;;7.54
64904;BMP280;51401;48.882;12.598;2023-01-09T11:55:55;98432.44;;;7.51
64904;BMP280;51401;48.882;12.598;2023-01-09T11:58:22;98400.94;;;7.58
64904;BMP280;51401;48.882;12.598;2023-01-09T12:01:32;98300.81;;;7.63
64904;BMP280;51401;48.882;12.598;2023-01-09T12:06:16;98237.94;;;7.71
64904;BMP280;51401;48.882;12.598;2023-01-09T12:09:02;98218.94;;;7.79
64904;BMP280;51401;48.882;12.598;2023-01-09T12:13:59;98088.03;;;7.76
64904;BMP280;51401;48.882;12.598;2023-01-09T12:22:33;97985.41;;;7.70
64904;BMP280;51401;48.882;12.598;2023-01-09T12:24:52;98004.97;;;7.71
64904;BMP280;51401;48.882;12.598;2023-01-09T12:28:01;98014.25;;;7.75
64904;BMP280;51401;48.882;12.598;2023-01-09T12:35:39;97873.69;;;7.66
64904;BMP280;51401;48.882;12.598;2023-01-09T12:38:16;97874.06;;;7.68
64904;BMP280;51401;48.882;12.598;2023-01-09T12:43:38;97735.16;;;7.70
64904;BMP280;51401;48.882;12.598;2023-01-09T12:46:18;97667.72;;;7.71
64904;BMP280;51401;48.882;12.598;2023-01-09T12:51:25;97549.81;;;7.75
64904;BMP280;51401;48.882;12.598;2023-01-09T12:57:17;97447.03;;;7.80
64904;BMP280;51401;48.882;12.598;2023-01-09T12:59:59;97389.94;;;7.82
64904;BMP280;51401;48.882;12.598;2023-01-09T13:02:44;97344.97;;;7.83
64904;BMP280;51401;48.882;12.598;2023-01-09T13:05:18;97303.66;;;7.79
64904;BMP280;51401;48.882;12.598;2023-01-09T13:07:48;97269.72;;;7.74
64904;BMP280;51401;48.882;12.598;2023-01-09T13:10:25;97222.56;;;7.74
64904;BMP280;51401;48.882;12.598;2023-01-09T13:12:52;97178.34;;;7.72
64904;BMP280;51401;48.882;12.598;2023-01-09T13:15:26;97131.13;;;7.71
64904;BMP280;51401;48.882;12.598;2023-01-09T13:20:46;97061.50;;;7.71
64904;BMP280;51401;48.882;12.598;2023-01-09T13:26:24;96972.69;;;7.69
64904;BMP280;51401;48.882;12.598;2023-01-09T13:28:56;96935.47;;;7.66
64904;BMP280;51401;48.882;12.598;2023-01-09T13:34:12;96871.75;;;7.63
64904;BMP280;51401;48.882;12.598;2023-01-09T13:36:45;96860.69;;;7.63
64904;BMP280;51401;48.882;12.598;2023-01-09T13:39:24;96864.38;;;7.58
64904;BMP280;51401;48.882;12.598;2023-01-09T13:41:55;96810.97;;;7.55
64904;BMP280;51401;48.882;12.598;2023-01-09T13:44:40;96781.13;;;7.54
64904;BMP280;51401;48.882;12.598;2023-01-09T13:47:18;96753.50;;;7.51
64904;BMP280;51401;48.882;12.598;2023-01-09T14:07:51;96545.00;;;7.64
64904;BMP280;51401;48.882;12.598;2023-01-09T14:10:26;96528.03;;;7.63
64904;BMP280;51401;48.882;12.598;2023-01-09T14:12:54;96501.16;;;7.64
64904;BMP280;51401;48.882;12.598;2023-01-09T14:15:39;96470.91;;;7.68
64904;BMP280;51401;48.882;12.598;2023-01-09T14:20:37;96426.78;;;7.55
64904;BMP280;51401;48.882;12.598;2023-01-09T14:23:04;96409.44;;;7.56
64904;BMP280;51401;48.882;12.598;2023-01-09T14:25:31;96382.63;;;7.50
64904;BMP280;51401;48.882;12.598;2023-01-09T14:38:47;96247.13;;;7.45
64904;BMP280;51401;48.882;12.598;2023-01-09T14:44:30;96222.09;;;7.46
64904;BMP280;51401;48.882;12.598;2023-01-09T14:47:05;96204.03;;;7.46
64904;BMP280;51401;48.882;12.598;2023-01-09T14:49:40;96196.31;;;7.46
64904;BMP280;51401;48.882;12.598;2023-01-09T14:52:33;96172.78;;;7.44
64904;BMP280;51401;48.882;12.598;2023-01-09T14:55:02;96158.44;;;7.43
64904;BMP280;51401;48.882;12.598;2023-01-09T14:57:33;96121.25;;;7.44
64904;BMP280;51401;48.882;12.598;2023-01-09T15:00:04;96106.56;;;7.41
64904;BMP280;51401;48.882;12.598;2023-01-09T15:02:33;96094.38;;;7.42
64904;BMP280;51401;48.882;12.598;2023-01-09T15:05:02;96083.00;;;7.39
64904;BMP280;51401;48.882;12.598;2023-01-09T15:07:31;96057.63;;;7.34
64904;BMP280;51401;48.882;12.598;2023-01-09T15:10:03;96039.69;;;7.27
64904;BMP280;51401;48.882;12.598;2023-01-09T15:12:30;96026.19;;;7.20
64904;BMP280;51401;48.882;12.598;2023-01-09T15:14:58;96002.31;;;7.13
64904;BMP280;51401;48.882;12.598;2023-01-09T15:17:27;95990.25;;;7.10
64904;BMP280;51401;48.882;12.598;2023-01-09T15:19:54;95969.81;;;6.96
64904;BMP280;51401;48.882;12.598;2023-01-09T15:22:21;95955.50;;;6.91
64904;BMP280;51401;48.882;12.598;2023-01-09T15:24:46;95965.13;;;6.87
64904;BMP280;51401;48.882;12.598;2023-01-09T15:27:14;95947.50;;;6.86
64904;BMP280;51401;48.882;12.598;2023-01-09T15:29:43;95960.00;;;6.84
64904;BMP280;51401;48.882;12.598;2023-01-09T15:32:28;95949.38;;;6.82
64904;BMP280;51401;48.882;12.598;2023-01-09T15:34:54;95938.72;;;6.80
64904;BMP280;51401;48.882;12.598;2023-01-09T15:37:36;95940.31;;;6.71
64904;BMP280;51401;48.882;12.598;2023-01-09T15:40:04;95930.03;;;6.67
64904;BMP280;51401;48.882;12.598;2023-01-09T15:42:34;95921.00;;;6.56
64904;BMP280;51401;48.882;12.598;2023-01-09T15:45:21;95921.44;;;6.48
64904;BMP280;51401;48.882;12.598;2023-01-09T15:47:47;95915.63;;;6.40
64904;BMP280;51401;48.882;12.598;2023-01-09T15:50:15;95907.28;;;6.33
64904;BMP280;51401;48.882;12.598;2023-01-09T15:52:40;95919.50;;;6.22
64904;BMP280;51401;48.882;12.598;2023-01-09T15:55:35;95924.03;;;6.08
64904;BMP280;51401;48.882;12.598;2023-01-09T15:58:02;95955.38;;;5.92
64904;BMP280;51401;48.882;12.598;2023-01-09T16:02:53;96015.38;;;5.76